Hoene Spring, Missouri
Current Conditions -  °F | °C
As of 9:54 AM on Thursday 18 Dec 2014 (Local Time) from KSUS Reporting Station
Light Snow Light Snow  
Wind Chill: -5°   Ceiling: 600
Heat Index: -1°   Visibility: 0.75mi
Dew Point: -2°   Wind: 8mph
Humidity: 92%   Direction: 50°NE
Pressure: 30.31"   Gusts: NA
Location:  38.5081°N, 90.6523°W
Report Text: KSUS 181554Z 05007KT 3/4SM R08R/P6000FT -SN BR BKN006 OVC032 M01/M02 A3031 RMK AO2 SLPNO P0001 T10111022
Loading
Personal Weather Stations






























Interactive Weather Map New forecast layout! Learn more

10-Day Weather Forecast

Advertisements
Track Severe Weather on mobile